Time;durP1;ratioP1;P1;durP2;ratioP2;P2;SDS_P1;SDS_P2;PMS_P1;PMS_P2;Temp;Humidity;BMP_temperature;BMP_pressure;BME280_temperature;BME280_humidity;BME280_pressure;Samples;Min_cycle;Max_cycle;Signal;HPM_P1;HPM_P2
2022/08/19 00:01:26;;;;;;;11.85;9.77;;;19.60;99.90;;;;;;5055166;28;20211;-66
2022/08/19 00:03:53;;;;;;;14.38;10.38;;;19.70;99.90;;;;;;5058796;28;20214;-66
2022/08/19 00:06:20;;;;;;;13.48;10.02;;;19.70;99.90;;;;;;5055359;28;20214;-66
2022/08/19 00:08:47;;;;;;;14.95;10.05;;;19.70;99.90;;;;;;5055440;28;20206;-66
2022/08/19 00:11:14;;;;;;;14.70;10.05;;;19.60;99.90;;;;;;5054137;28;20202;-66
2022/08/19 00:13:42;;;;;;;14.02;9.65;;;19.60;99.90;;;;;;5054385;28;20198;-66
2022/08/19 00:16:09;;;;;;;15.55;10.30;;;19.60;99.90;;;;;;5055233;28;20199;-66
2022/08/19 00:18:36;;;;;;;13.80;10.57;;;19.60;99.90;;;;;;5057508;28;20198;-66
2022/08/19 00:21:08;;;;;;;13.55;10.45;;;19.50;99.90;;;;;;5048190;28;20202;-66
2022/08/19 00:23:36;;;;;;;15.40;10.52;;;19.50;99.90;;;;;;5055767;28;20210;-66
2022/08/19 00:26:03;;;;;;;14.43;10.63;;;19.40;99.90;;;;;;5054369;28;20856;-66
2022/08/19 00:28:30;;;;;;;12.77;9.65;;;19.50;99.90;;;;;;5059136;28;20198;-66
2022/08/19 00:30:59;;;;;;;17.48;10.65;;;19.40;99.90;;;;;;5054315;28;20260;-66
2022/08/19 00:33:26;;;;;;;14.38;10.13;;;19.30;99.90;;;;;;5055581;28;20634;-66
2022/08/19 00:35:53;;;;;;;14.45;10.90;;;19.30;99.90;;;;;;5053986;28;20202;-66
2022/08/19 00:38:22;;;;;;;11.95;9.45;;;19.30;99.90;;;;;;5057857;28;20198;-66
2022/08/19 00:40:50;;;;;;;14.80;10.15;;;19.20;99.90;;;;;;5047710;28;20203;-66
2022/08/19 00:43:20;;;;;;;14.98;9.88;;;19.20;99.90;;;;;;5055901;28;20207;-66
2022/08/19 00:45:47;;;;;;;13.63;10.30;;;19.10;99.90;;;;;;5056641;28;20580;-66
2022/08/19 00:48:16;;;;;;;16.02;10.82;;;19.10;99.90;;;;;;5054706;28;20210;-66
2022/08/19 00:50:44;;;;;;;15.02;9.95;;;19.00;99.90;;;;;;5056016;28;20672;-66
2022/08/19 00:53:14;;;;;;;14.13;10.07;;;19.00;99.90;;;;;;5052136;28;20563;-66
2022/08/19 00:55:43;;;;;;;15.23;10.02;;;19.00;99.90;;;;;;5053933;28;20217;-66
2022/08/19 00:58:15;;;;;;;12.80;9.32;;;19.00;99.90;;;;;;5060417;28;20221;-66
2022/08/19 01:00:42;;;;;;;13.45;10.27;;;19.10;99.90;;;;;;5054688;28;20203;-66
2022/08/19 01:03:12;;;;;;;17.08;10.55;;;19.00;99.90;;;;;;5053058;28;20242;-66
2022/08/19 01:05:44;;;;;;;13.57;9.40;;;18.90;99.90;;;;;;5054919;28;20238;-66
2022/08/19 01:08:11;;;;;;;15.80;10.57;;;18.90;99.90;;;;;;5057638;28;20724;-66
2022/08/19 01:10:41;;;;;;;13.10;10.02;;;19.00;99.90;;;;;;5050373;28;20235;-66
2022/08/19 01:13:09;;;;;;;17.98;11.02;;;18.90;99.90;;;;;;5051498;28;20206;-66
2022/08/19 01:15:41;;;;;;;14.93;10.32;;;18.80;99.90;;;;;;5043895;28;20195;-66
2022/08/19 01:18:12;;;;;;;13.85;9.65;;;18.80;99.90;;;;;;5050175;28;20683;-66
2022/08/19 01:20:41;;;;;;;12.90;9.75;;;18.70;99.90;;;;;;5050876;28;20207;-66
2022/08/19 01:23:09;;;;;;;13.73;9.75;;;18.70;99.90;;;;;;5047974;28;20195;-66
2022/08/19 01:25:42;;;;;;;12.27;9.32;;;18.70;99.90;;;;;;5049571;28;20708;-66
2022/08/19 01:28:09;;;;;;;16.73;10.95;;;18.70;99.90;;;;;;5052147;28;20203;-67
2022/08/19 01:30:36;;;;;;;13.85;9.90;;;18.70;99.90;;;;;;5050219;28;20214;-66
2022/08/19 01:33:05;;;;;;;13.52;9.73;;;18.70;99.90;;;;;;5055374;28;20209;-66
2022/08/19 01:35:33;;;;;;;13.43;9.32;;;18.70;99.90;;;;;;5054571;28;20196;-66
2022/08/19 01:38:02;;;;;;;15.48;10.40;;;18.70;99.90;;;;;;5051835;28;20210;-66
2022/08/19 01:40:34;;;;;;;15.15;10.77;;;18.70;99.90;;;;;;5045552;28;20221;-66
2022/08/19 01:43:03;;;;;;;14.57;10.25;;;18.70;99.90;;;;;;5052062;28;20203;-66
2022/08/19 01:45:32;;;;;;;13.52;9.13;;;18.70;99.90;;;;;;5057950;28;20311;-66
2022/08/19 01:47:59;;;;;;;15.50;10.20;;;18.70;99.90;;;;;;5047115;28;20196;-66
2022/08/19 01:50:27;;;;;;;14.20;9.95;;;18.70;99.90;;;;;;5043634;28;20198;-66
2022/08/19 01:52:54;;;;;;;15.57;9.85;;;18.70;99.90;;;;;;5050841;28;20248;-66
2022/08/19 01:55:23;;;;;;;12.55;9.43;;;18.70;99.90;;;;;;5047874;28;20195;-66
2022/08/19 01:58:03;;;;;;;16.20;10.80;;;18.60;99.90;;;;;;5044048;28;20293;-66
2022/08/19 02:00:32;;;;;;;14.90;10.20;;;18.60;99.90;;;;;;5054105;28;20194;-66
2022/08/19 02:03:00;;;;;;;14.25;10.57;;;18.50;99.90;;;;;;5055198;28;20199;-66
2022/08/19 02:05:29;;;;;;;14.80;10.73;;;18.60;99.90;;;;;;5048922;28;20874;-66
2022/08/19 02:07:56;;;;;;;15.70;10.95;;;18.50;99.90;;;;;;5047992;28;20199;-66
2022/08/19 02:10:23;;;;;;;14.45;10.38;;;18.60;99.90;;;;;;5041502;28;20202;-66
2022/08/19 02:12:55;;;;;;;14.38;10.32;;;18.50;99.90;;;;;;5051994;28;20222;-66
2022/08/19 02:15:25;;;;;;;13.43;10.02;;;18.50;99.90;;;;;;5045072;28;20295;-66
2022/08/19 02:17:53;;;;;;;15.15;10.88;;;18.60;99.90;;;;;;5052963;28;20585;-66
2022/08/19 02:20:20;;;;;;;16.08;10.23;;;18.50;99.90;;;;;;5050197;28;20668;-66
2022/08/19 02:22:46;;;;;;;13.07;10.00;;;18.50;99.90;;;;;;5054472;28;20528;-66
2022/08/19 02:25:15;;;;;;;18.13;10.32;;;18.50;99.90;;;;;;5056898;28;20221;-66
2022/08/19 02:27:42;;;;;;;14.05;9.60;;;18.40;99.90;;;;;;5057609;28;20248;-66
2022/08/19 02:30:17;;;;;;;17.98;11.05;;;18.40;99.90;;;;;;5057927;28;20194;-66
2022/08/19 02:32:44;;;;;;;14.95;10.80;;;18.40;99.90;;;;;;5050372;28;20219;-66
2022/08/19 02:35:11;;;;;;;15.65;10.88;;;18.40;99.90;;;;;;5062796;28;20256;-66
2022/08/19 02:40:22;;;;;;;15.80;10.65;;;18.50;99.90;;;;;;5055129;28;20200;-66
2022/08/19 02:42:49;;;;;;;16.20;11.13;;;18.50;99.90;;;;;;5048380;28;20206;-66
2022/08/19 02:45:17;;;;;;;16.00;10.07;;;18.40;99.90;;;;;;5057147;28;20725;-66
2022/08/19 02:47:44;;;;;;;16.38;10.75;;;18.40;99.90;;;;;;5048288;28;20223;-66
2022/08/19 02:50:11;;;;;;;15.88;10.27;;;18.40;99.90;;;;;;5055540;28;20198;-66
2022/08/19 02:52:38;;;;;;;16.85;10.93;;;18.30;99.90;;;;;;5056364;28;20194;-66
2022/08/19 02:55:06;;;;;;;15.75;10.93;;;18.40;99.90;;;;;;5049777;28;20211;-66
2022/08/19 02:57:33;;;;;;;14.18;10.88;;;18.40;99.90;;;;;;5052675;28;20203;-66
2022/08/19 03:00:01;;;;;;;15.20;10.15;;;18.40;99.90;;;;;;5055435;28;20199;-66
2022/08/19 03:02:30;;;;;;;14.73;10.57;;;18.40;99.90;;;;;;5058889;28;20202;-66
2022/08/19 03:04:57;;;;;;;15.10;9.98;;;18.50;99.90;;;;;;5054660;28;20210;-66
2022/08/19 03:07:24;;;;;;;15.88;10.90;;;18.50;99.90;;;;;;5055344;28;20194;-66
2022/08/19 03:09:50;;;;;;;17.08;10.88;;;18.50;99.90;;;;;;5053519;28;20210;-66
2022/08/19 03:12:17;;;;;;;17.08;11.10;;;18.40;99.90;;;;;;5054373;28;20207;-66
2022/08/19 03:14:46;;;;;;;15.30;10.65;;;18.50;99.90;;;;;;5054897;28;20638;-66
2022/08/19 03:17:13;;;;;;;15.30;10.02;;;18.40;99.90;;;;;;5059919;28;20574;-66
2022/08/19 03:19:42;;;;;;;14.93;10.40;;;18.50;99.90;;;;;;5051238;28;20199;-66
2022/08/19 03:22:10;;;;;;;19.63;11.55;;;18.50;99.90;;;;;;5057854;28;20198;-66
2022/08/19 03:24:37;;;;;;;17.25;10.90;;;18.50;99.90;;;;;;5050063;28;20658;-66
2022/08/19 03:27:04;;;;;;;14.95;10.68;;;18.50;99.90;;;;;;5060658;28;20575;-66
2022/08/19 03:29:32;;;;;;;14.40;10.73;;;18.50;99.90;;;;;;5054600;28;20282;-66
2022/08/19 03:32:01;;;;;;;15.75;10.70;;;18.50;99.90;;;;;;5057232;28;20203;-66
2022/08/19 03:34:31;;;;;;;16.35;10.82;;;18.50;99.90;;;;;;5054058;28;20249;-67
2022/08/19 03:37:04;;;;;;;17.42;11.60;;;18.40;99.90;;;;;;5047810;28;20530;-66
2022/08/19 03:39:31;;;;;;;17.48;10.68;;;18.50;99.90;;;;;;5039770;28;20261;-66
2022/08/19 03:41:59;;;;;;;16.52;12.02;;;18.60;99.90;;;;;;5059799;28;20630;-66
2022/08/19 03:44:26;;;;;;;20.38;11.05;;;18.50;99.90;;;;;;5056723;28;20269;-66
2022/08/19 03:46:55;;;;;;;14.27;10.93;;;18.50;99.90;;;;;;5054880;28;20693;-66
2022/08/19 03:49:24;;;;;;;14.70;10.95;;;18.50;99.90;;;;;;5059250;28;20203;-66
2022/08/19 03:51:51;;;;;;;14.48;10.68;;;18.50;99.90;;;;;;5056514;28;20257;-66
2022/08/19 03:54:23;;;;;;;17.05;11.20;;;18.50;99.90;;;;;;5054564;28;20211;-66
2022/08/19 03:56:52;;;;;;;16.80;11.23;;;18.40;99.90;;;;;;5046571;28;20203;-66
2022/08/19 03:59:25;;;;;;;17.88;11.52;;;18.40;99.90;;;;;;5051027;28;20207;-66
2022/08/19 04:01:53;;;;;;;14.93;10.35;;;18.40;99.90;;;;;;5032326;28;20209;-66
2022/08/19 04:04:21;;;;;;;16.73;11.00;;;18.40;99.90;;;;;;5058832;28;20549;-68
2022/08/19 04:06:48;;;;;;;16.95;10.95;;;18.40;99.90;;;;;;5054766;28;20957;-66
2022/08/19 04:09:15;;;;;;;15.65;11.45;;;18.40;99.90;;;;;;5054870;28;20629;-66
2022/08/19 04:11:46;;;;;;;16.92;12.10;;;18.40;99.90;;;;;;5052622;28;20210;-66
2022/08/19 04:14:15;;;;;;;19.20;12.48;;;18.40;99.90;;;;;;5051353;28;20301;-66
2022/08/19 04:16:44;;;;;;;17.25;11.57;;;18.40;99.90;;;;;;5042781;28;20196;-66
2022/08/19 04:19:11;;;;;;;19.27;12.57;;;18.40;99.90;;;;;;5046524;28;20736;-66
2022/08/19 04:21:38;;;;;;;17.55;12.65;;;18.40;99.90;;;;;;5053920;28;20198;-66
2022/08/19 04:24:06;;;;;;;19.38;11.98;;;18.30;99.90;;;;;;5053436;28;20209;-65
2022/08/19 04:26:35;;;;;;;18.77;12.75;;;18.30;99.90;;;;;;5043089;28;20704;-66
2022/08/19 04:29:06;;;;;;;17.02;11.68;;;18.20;99.90;;;;;;5048933;28;20205;-66
2022/08/19 04:31:35;;;;;;;17.63;12.02;;;18.20;99.90;;;;;;5052160;28;20591;-66
2022/08/19 04:34:04;;;;;;;18.33;12.68;;;18.30;99.90;;;;;;5049612;28;20203;-66
2022/08/19 04:36:33;;;;;;;16.42;11.93;;;18.30;99.90;;;;;;5051417;28;20199;-66
2022/08/19 04:39:02;;;;;;;15.32;11.35;;;18.30;99.90;;;;;;5048289;28;20546;-66
2022/08/19 04:44:17;;;;;;;16.90;11.65;;;18.20;99.90;;;;;;5041917;28;20207;-66
2022/08/19 04:46:45;;;;;;;18.35;11.88;;;18.30;99.90;;;;;;5049859;28;20230;-66
2022/08/19 04:49:12;;;;;;;17.55;11.02;;;18.30;99.90;;;;;;5048896;28;20566;-66
2022/08/19 04:51:42;;;;;;;15.25;11.10;;;18.20;99.90;;;;;;5051784;28;20206;-66
2022/08/19 04:54:09;;;;;;;15.93;10.75;;;18.20;99.90;;;;;;5046681;28;20207;-66
2022/08/19 04:56:36;;;;;;;17.08;10.35;;;18.10;99.90;;;;;;5050970;28;20210;-66
2022/08/19 04:59:04;;;;;;;16.40;10.77;;;18.20;99.90;;;;;;5048539;28;20210;-66
2022/08/19 05:01:34;;;;;;;15.68;9.88;;;18.10;99.90;;;;;;5049422;28;21219;-66
2022/08/19 05:04:04;;;;;;;15.13;10.05;;;18.10;99.90;;;;;;5050205;28;20563;-66
2022/08/19 05:06:33;;;;;;;15.50;9.85;;;18.10;99.90;;;;;;5050686;28;20221;-66
2022/08/19 05:09:01;;;;;;;15.13;9.73;;;18.10;99.90;;;;;;5044424;28;20210;-66
2022/08/19 05:11:30;;;;;;;15.30;9.90;;;18.10;99.90;;;;;;5045126;28;20238;-66
2022/08/19 05:13:58;;;;;;;19.23;11.15;;;18.20;99.90;;;;;;5053184;28;20206;-66
2022/08/19 05:16:26;;;;;;;12.60;9.18;;;18.20;99.90;;;;;;5049107;28;20203;-66
2022/08/19 05:24:26;;;;;;;17.60;9.48;;;18.10;99.90;;;;;;5050906;28;20844;-66
2022/08/19 05:26:56;;;;;;;15.10;9.32;;;18.10;99.90;;;;;;5051304;28;20580;-66
2022/08/19 05:29:25;;;;;;;12.63;9.05;;;17.90;99.90;;;;;;5049906;28;20199;-66
2022/08/19 05:31:53;;;;;;;13.48;9.50;;;18.10;99.90;;;;;;5044491;28;20676;-66
2022/08/19 05:34:24;;;;;;;15.15;9.80;;;18.10;99.90;;;;;;5049985;28;20566;-66
2022/08/19 05:36:56;;;;;;;17.58;10.10;;;18.00;99.90;;;;;;5047416;28;20199;-66
2022/08/19 05:39:25;;;;;;;14.20;9.80;;;18.20;99.90;;;;;;5049104;28;20704;-66
2022/08/19 05:41:54;;;;;;;15.70;10.32;;;18.10;99.90;;;;;;5049735;28;20666;-66
2022/08/19 05:44:22;;;;;;;15.35;9.88;;;18.10;99.90;;;;;;5044793;28;20695;-66
2022/08/19 05:46:49;;;;;;;13.75;9.80;;;18.20;99.90;;;;;;5049920;28;20220;-66
2022/08/19 05:49:16;;;;;;;14.93;9.82;;;18.20;99.90;;;;;;5047929;28;20658;-65
2022/08/19 05:51:44;;;;;;;13.73;8.90;;;18.20;99.90;;;;;;5043904;28;21591;-65
2022/08/19 05:54:13;;;;;;;16.08;9.90;;;18.10;99.90;;;;;;5045249;28;20203;-66
2022/08/19 05:56:41;;;;;;;16.83;10.02;;;18.20;99.90;;;;;;5048337;28;20294;-66
2022/08/19 05:59:09;;;;;;;14.55;9.15;;;18.30;99.90;;;;;;5046317;28;20203;-66
2022/08/19 06:01:37;;;;;;;12.02;9.48;;;18.40;99.90;;;;;;5049229;28;20660;-66
2022/08/19 06:04:04;;;;;;;14.13;9.77;;;18.30;99.90;;;;;;5046354;28;20836;-66
2022/08/19 06:06:33;;;;;;;16.80;10.43;;;18.30;99.90;;;;;;5047941;28;20219;-67
2022/08/19 06:09:02;;;;;;;17.40;10.85;;;18.20;99.90;;;;;;5049099;28;20242;-66
2022/08/19 06:11:35;;;;;;;16.52;10.75;;;18.20;99.90;;;;;;5048903;28;20195;-70
2022/08/19 06:14:05;;;;;;;18.58;12.02;;;18.10;99.90;;;;;;5044526;28;20207;-67
2022/08/19 06:16:34;;;;;;;18.52;11.52;;;18.10;99.90;;;;;;5046908;28;20556;-70
2022/08/19 06:19:03;;;;;;;16.25;11.05;;;18.10;99.90;;;;;;5048039;28;20199;-66
2022/08/19 06:21:31;;;;;;;17.58;11.75;;;18.10;99.90;;;;;;5046252;28;20579;-66
2022/08/19 06:23:58;;;;;;;17.88;12.27;;;18.10;99.90;;;;;;5049113;28;20202;-66
2022/08/19 06:26:27;;;;;;;18.83;11.50;;;18.00;99.90;;;;;;5049189;28;20262;-66
2022/08/19 06:28:54;;;;;;;18.55;12.23;;;18.20;99.90;;;;;;5046977;28;20559;-66
2022/08/19 06:31:23;;;;;;;16.83;11.90;;;18.10;99.90;;;;;;5049319;28;20213;-65
2022/08/19 06:33:50;;;;;;;20.13;12.48;;;18.20;99.90;;;;;;5045667;28;20295;-66
2022/08/19 06:36:20;;;;;;;17.20;11.30;;;18.20;99.90;;;;;;5049803;28;20269;-65
2022/08/19 06:38:46;;;;;;;19.10;11.93;;;18.20;99.90;;;;;;5045651;28;20195;-66
2022/08/19 06:41:13;;;;;;;19.75;12.32;;;18.10;99.90;;;;;;5049206;28;20822;-66
2022/08/19 06:43:42;;;;;;;17.95;12.05;;;18.10;99.90;;;;;;5049038;28;20196;-66
2022/08/19 06:46:14;;;;;;;19.52;12.45;;;18.10;99.90;;;;;;5047043;28;20200;-66
2022/08/19 06:48:40;;;;;;;20.30;12.45;;;18.20;99.90;;;;;;5049468;28;20207;-66
2022/08/19 06:51:07;;;;;;;19.42;12.95;;;18.20;99.90;;;;;;5049856;28;20211;-66
2022/08/19 06:53:34;;;;;;;22.77;14.80;;;18.10;99.90;;;;;;5049324;28;20210;-66
2022/08/19 06:56:02;;;;;;;24.02;15.43;;;18.20;99.90;;;;;;5045656;28;20203;-66
2022/08/19 06:58:31;;;;;;;21.42;14.30;;;18.30;99.90;;;;;;5048151;28;20191;-66
2022/08/19 07:01:02;;;;;;;23.67;14.77;;;18.30;99.90;;;;;;5051201;28;20209;-66
2022/08/19 07:03:32;;;;;;;23.90;14.38;;;18.30;99.90;;;;;;5049690;28;20222;-66
2022/08/19 07:06:03;;;;;;;22.75;14.93;;;18.40;99.90;;;;;;5044729;28;20211;-66
2022/08/19 07:08:29;;;;;;;22.77;14.35;;;18.40;99.90;;;;;;5046157;28;20226;-66
2022/08/19 07:10:56;;;;;;;23.60;15.65;;;18.40;99.90;;;;;;5051052;28;20210;-66
2022/08/19 07:13:23;;;;;;;23.65;15.40;;;18.60;99.90;;;;;;5052993;28;20214;-66
2022/08/19 07:15:50;;;;;;;22.50;14.63;;;18.70;99.90;;;;;;5047900;28;20210;-66
2022/08/19 07:18:20;;;;;;;23.23;15.38;;;18.90;99.90;;;;;;5051219;28;20622;-66
2022/08/19 07:20:47;;;;;;;24.35;14.95;;;19.10;99.90;;;;;;5054064;28;20252;-66
2022/08/19 07:23:15;;;;;;;23.50;14.63;;;19.00;99.90;;;;;;5057535;28;20209;-66
2022/08/19 07:25:43;;;;;;;22.65;14.43;;;19.10;99.90;;;;;;5051194;28;20205;-66
2022/08/19 07:28:10;;;;;;;21.40;14.43;;;19.20;99.90;;;;;;5054080;28;20561;-66
2022/08/19 07:30:40;;;;;;;22.00;14.50;;;19.40;99.90;;;;;;5054722;28;20233;-66
2022/08/19 07:33:07;;;;;;;21.58;13.68;;;19.40;99.90;;;;;;5054423;28;20276;-66
2022/08/19 07:35:35;;;;;;;20.48;12.82;;;19.30;99.90;;;;;;5052241;28;20209;-66
2022/08/19 07:38:03;;;;;;;20.35;13.80;;;19.40;99.90;;;;;;5053984;28;20206;-66
2022/08/19 07:40:31;;;;;;;19.95;13.73;;;19.50;99.90;;;;;;5050172;28;20203;-66
2022/08/19 07:42:58;;;;;;;24.33;14.20;;;19.40;99.90;;;;;;5057094;28;20645;-66
2022/08/19 07:45:25;;;;;;;20.55;13.63;;;19.60;99.90;;;;;;5050664;28;20211;-66
2022/08/19 07:47:52;;;;;;;22.40;13.82;;;19.70;99.90;;;;;;5055058;28;20222;-66
2022/08/19 07:50:21;;;;;;;17.50;12.32;;;19.70;99.90;;;;;;5054561;28;20241;-66
2022/08/19 07:52:51;;;;;;;17.98;11.65;;;19.60;99.90;;;;;;5055676;28;21887;-66
2022/08/19 07:55:20;;;;;;;17.73;11.90;;;19.70;99.90;;;;;;5053823;28;20210;-66
2022/08/19 07:57:46;;;;;;;16.55;11.98;;;19.80;99.90;;;;;;5050081;28;20553;-66
2022/08/19 08:00:15;;;;;;;18.60;12.55;;;19.60;99.90;;;;;;5051566;28;20206;-66
2022/08/19 08:02:43;;;;;;;17.48;12.45;;;19.60;99.90;;;;;;5050215;28;20208;-67
2022/08/19 08:10:40;;;;;;;16.10;11.70;;;20.10;99.90;;;;;;5051174;28;20324;-66
2022/08/19 08:13:07;;;;;;;19.42;11.20;;;20.00;99.90;;;;;;5047794;28;20219;-67
2022/08/19 08:15:34;;;;;;;17.02;12.52;;;20.00;99.90;;;;;;5047399;28;20294;-66
2022/08/19 08:18:02;;;;;;;17.52;11.90;;;20.20;99.90;;;;;;5054041;28;20225;-66
2022/08/19 08:20:29;;;;;;;15.68;11.35;;;20.40;99.90;;;;;;5047903;28;20198;-66
2022/08/19 08:25:41;;;;;;;13.40;9.98;;;20.50;99.90;;;;;;5044391;28;20206;-66
2022/08/19 08:28:08;;;;;;;14.23;10.38;;;20.70;99.90;;;;;;5052059;28;20234;-66
2022/08/19 08:30:39;;;;;;;14.13;10.80;;;20.80;99.90;;;;;;5051577;28;20663;-67
2022/08/19 08:33:06;;;;;;;16.40;11.02;;;21.10;99.90;;;;;;5050715;28;20195;-66
2022/08/19 08:35:34;;;;;;;14.70;11.18;;;21.30;99.90;;;;;;5050015;28;20200;-66
2022/08/19 08:38:03;;;;;;;14.05;11.40;;;21.10;99.90;;;;;;5046545;28;20199;-66
2022/08/19 08:40:39;;;;;;;15.10;11.30;;;21.20;99.90;;;;;;5048505;28;20642;-67
2022/08/19 08:43:10;;;;;;;15.43;11.70;;;21.50;99.90;;;;;;5050500;28;20221;-67
2022/08/19 08:45:44;;;;;;;18.70;12.57;;;21.30;99.90;;;;;;5045003;28;20203;-66
2022/08/19 08:48:21;;;;;;;15.80;10.85;;;20.90;99.90;;;;;;5041459;28;20234;-67
2022/08/19 08:50:52;;;;;;;15.32;10.63;;;21.50;99.90;;;;;;5038643;28;20199;-66
2022/08/19 08:53:22;;;;;;;14.57;10.60;;;21.40;99.90;;;;;;5052144;28;20207;-67
2022/08/19 08:55:49;;;;;;;16.65;11.00;;;21.60;99.90;;;;;;5050868;28;20205;-66
2022/08/19 08:58:22;;;;;;;17.20;11.55;;;21.50;99.90;;;;;;5056575;28;20560;-66
2022/08/19 09:00:50;;;;;;;15.32;10.15;;;21.80;99.90;;;;;;5046889;28;20256;-66
2022/08/19 09:03:20;;;;;;;11.68;8.45;;;21.40;99.90;;;;;;5050909;28;20559;-67
2022/08/19 09:05:58;;;;;;;11.52;8.60;;;21.70;99.90;;;;;;5055198;28;20672;-67
2022/08/19 09:08:40;;;;;;;12.50;8.90;;;21.50;99.90;;;;;;5049746;28;20218;-66
2022/08/19 09:11:10;;;;;;;9.73;7.82;;;21.70;99.90;;;;;;5046666;28;20203;-67
2022/08/19 09:13:49;;;;;;;13.10;8.57;;;22.20;99.90;;;;;;5046854;28;20218;-67
2022/08/19 09:16:23;;;;;;;11.10;8.82;;;21.90;99.90;;;;;;5030225;28;20218;-67
2022/08/19 09:18:53;;;;;;;10.93;8.32;;;22.00;99.90;;;;;;5034210;28;20201;-67
2022/08/19 09:21:22;;;;;;;13.80;9.15;;;22.10;99.90;;;;;;5048183;28;20570;-67
2022/08/19 09:23:51;;;;;;;10.02;7.30;;;22.00;99.90;;;;;;5046876;28;20199;-67
2022/08/19 09:26:20;;;;;;;11.40;8.25;;;22.10;99.90;;;;;;5052582;28;20202;-67
2022/08/19 09:28:48;;;;;;;9.48;7.78;;;21.80;99.90;;;;;;5051227;28;20221;-67
2022/08/19 09:31:18;;;;;;;10.95;7.95;;;22.00;99.90;;;;;;5048343;28;20214;-67
2022/08/19 09:33:45;;;;;;;11.40;8.40;;;22.20;99.90;;;;;;5051486;28;20195;-67
2022/08/19 09:36:14;;;;;;;10.50;7.63;;;22.60;99.90;;;;;;5051051;28;20683;-67
2022/08/19 09:38:41;;;;;;;10.18;7.88;;;22.90;99.90;;;;;;5055089;28;20203;-67
2022/08/19 09:41:13;;;;;;;10.13;7.20;;;22.80;99.90;;;;;;5051754;28;20417;-67
2022/08/19 09:43:41;;;;;;;7.60;5.97;;;22.90;99.90;;;;;;5049367;28;20629;-67
2022/08/19 09:46:09;;;;;;;8.02;6.40;;;23.30;99.90;;;;;;5051783;28;20199;-67
2022/08/19 09:48:37;;;;;;;9.07;6.35;;;23.50;99.90;;;;;;5052012;28;20227;-67
2022/08/19 09:51:06;;;;;;;9.27;6.65;;;23.50;99.90;;;;;;5051163;28;20207;-67
2022/08/19 09:53:33;;;;;;;9.48;7.03;;;23.40;99.90;;;;;;5051718;28;20210;-67
2022/08/19 09:56:00;;;;;;;8.57;6.45;;;23.50;99.90;;;;;;5053328;28;20653;-67
2022/08/19 09:58:29;;;;;;;6.60;6.00;;;24.10;99.90;;;;;;5048544;28;20203;-67
2022/08/19 10:00:57;;;;;;;7.65;5.85;;;24.30;99.90;;;;;;5051915;28;20218;-67
2022/08/19 10:03:24;;;;;;;7.45;6.50;;;24.10;99.90;;;;;;5053850;28;20283;-67
2022/08/19 10:05:51;;;;;;;8.32;5.97;;;24.00;99.90;;;;;;5051733;28;21710;-67
2022/08/19 10:08:21;;;;;;;8.90;5.53;;;24.30;99.90;;;;;;5047840;28;20214;-67
2022/08/19 10:10:48;;;;;;;6.30;4.72;;;24.00;99.90;;;;;;5048237;28;20570;-67
2022/08/19 10:13:18;;;;;;;6.88;5.68;;;24.10;99.90;;;;;;5044508;28;20211;-67
2022/08/19 10:15:50;;;;;;;5.38;3.83;;;24.50;99.90;;;;;;5049020;28;20286;-67
2022/08/19 10:18:18;;;;;;;5.35;4.57;;;25.10;99.90;;;;;;5045803;28;20607;-67
2022/08/19 10:20:46;;;;;;;7.13;4.93;;;24.90;99.90;;;;;;5049998;28;20199;-67
2022/08/19 10:23:14;;;;;;;8.07;5.00;;;25.30;99.90;;;;;;5054286;28;20248;-67
2022/08/19 10:25:42;;;;;;;6.25;4.30;;;25.70;99.90;;;;;;5049292;28;20294;-67
2022/08/19 10:28:11;;;;;;;4.90;3.63;;;25.90;95.20;;;;;;5053598;28;20317;-67
2022/08/19 10:30:39;;;;;;;5.13;4.50;;;25.40;98.70;;;;;;5045766;28;20669;-68
2022/08/19 10:33:07;;;;;;;4.18;3.78;;;25.10;99.90;;;;;;5052713;28;20205;-67
2022/08/19 10:35:34;;;;;;;5.25;4.38;;;25.50;99.90;;;;;;5050184;28;20563;-67
2022/08/19 10:38:03;;;;;;;4.53;4.10;;;25.20;99.90;;;;;;5048889;28;20196;-67
2022/08/19 10:40:29;;;;;;;5.90;4.18;;;25.20;98.40;;;;;;5047544;28;20200;-67
2022/08/19 10:42:56;;;;;;;7.05;4.32;;;25.10;93.10;;;;;;5046882;28;20290;-67
2022/08/19 10:45:25;;;;;;;5.22;4.20;;;25.30;98.50;;;;;;5054528;28;20242;-67
2022/08/19 10:47:53;;;;;;;4.35;3.95;;;25.60;93.80;;;;;;5054533;28;20223;-67
2022/08/19 10:53:08;;;;;;;2.95;2.67;;;25.10;92.40;;;;;;5053866;28;20237;-67
2022/08/19 10:58:22;;;;;;;3.13;2.38;;;25.70;64.30;;;;;;5059009;28;20257;-70
2022/08/19 11:00:53;;;;;;;2.65;2.45;;;25.90;79.50;;;;;;5049923;28;20204;-70
2022/08/19 11:03:20;;;;;;;3.88;2.20;;;25.70;67.70;;;;;;5048018;28;20211;-70
2022/08/19 11:05:58;;;;;;;3.72;2.30;;;26.00;56.20;;;;;;5053768;28;20202;-70
2022/08/19 11:08:26;;;;;;;3.40;2.20;;;25.20;52.40;;;;;;5042624;28;20685;-70
2022/08/19 11:10:56;;;;;;;2.95;2.28;;;25.70;63.40;;;;;;5049069;28;20650;-70
2022/08/19 11:13:24;;;;;;;2.10;2.00;;;25.50;68.90;;;;;;5054325;28;20211;-70
2022/08/19 11:15:58;;;;;;;2.53;2.33;;;25.00;59.30;;;;;;5045122;28;20211;-70
2022/08/19 11:18:25;;;;;;;3.15;2.25;;;25.10;64.60;;;;;;5054406;28;20198;-70
2022/08/19 11:20:54;;;;;;;2.85;1.90;;;25.80;60.00;;;;;;5054543;28;20203;-70
2022/08/19 11:23:21;;;;;;;2.40;2.20;;;26.30;52.70;;;;;;5054098;28;20642;-70
2022/08/19 11:25:48;;;;;;;2.83;2.00;;;26.10;56.00;;;;;;5046560;28;20204;-70
2022/08/19 11:28:14;;;;;;;2.58;2.38;;;26.50;47.10;;;;;;5054101;28;20222;-70
2022/08/19 11:30:41;;;;;;;2.50;2.30;;;26.50;56.20;;;;;;5046744;28;20653;-70
2022/08/19 11:33:10;;;;;;;2.40;2.20;;;26.50;57.50;;;;;;5049309;28;20209;-70
2022/08/19 11:35:40;;;;;;;3.22;2.20;;;26.50;50.40;;;;;;5051666;28;20677;-70
2022/08/19 11:38:09;;;;;;;3.58;2.05;;;26.40;56.50;;;;;;5047388;28;20199;-70
2022/08/19 11:40:35;;;;;;;2.75;2.10;;;26.40;57.70;;;;;;5048151;28;20239;-70
2022/08/19 11:43:03;;;;;;;2.72;2.53;;;26.80;50.40;;;;;;5053124;28;20199;-70
2022/08/19 11:45:31;;;;;;;2.70;2.40;;;26.80;43.20;;;;;;5054498;28;20206;-70
2022/08/19 11:47:57;;;;;;;2.35;2.15;;;26.70;38.80;;;;;;5053897;28;20579;-70
2022/08/19 11:50:25;;;;;;;2.28;2.10;;;27.30;36.30;;;;;;5049507;28;20203;-71
2022/08/19 11:52:54;;;;;;;2.80;2.13;;;27.00;39.90;;;;;;5054853;28;20566;-70
2022/08/19 11:55:24;;;;;;;3.05;2.10;;;27.10;34.50;;;;;;5051272;28;20199;-70
2022/08/19 11:57:50;;;;;;;2.72;2.53;;;27.20;30.30;;;;;;5060186;28;20297;-70
2022/08/19 12:00:18;;;;;;;2.42;2.20;;;27.00;29.50;;;;;;5052195;28;20194;-70
2022/08/19 12:02:44;;;;;;;2.25;2.10;;;27.00;32.10;;;;;;5048399;28;20300;-70
2022/08/19 12:05:11;;;;;;;2.75;2.55;;;26.90;32.00;;;;;;5054289;28;20198;-70
2022/08/19 12:07:38;;;;;;;2.65;2.30;;;26.80;29.70;;;;;;5053802;28;20199;-70
2022/08/19 12:10:05;;;;;;;5.65;2.40;;;27.10;40.80;;;;;;5055081;28;20226;-70
2022/08/19 12:12:34;;;;;;;3.17;2.33;;;27.00;32.90;;;;;;5053525;28;20210;-70
2022/08/19 12:15:00;;;;;;;2.85;2.60;;;27.60;32.40;;;;;;5052020;28;20211;-70
2022/08/19 12:17:28;;;;;;;2.88;2.45;;;27.30;30.00;;;;;;5051780;28;20199;-70
2022/08/19 12:19:55;;;;;;;2.72;2.53;;;26.50;44.50;;;;;;5049909;28;20218;-69
2022/08/19 12:22:22;;;;;;;3.03;2.78;;;26.60;35.50;;;;;;5049873;28;20552;-70
2022/08/19 12:24:52;;;;;;;3.95;2.83;;;26.60;35.30;;;;;;5051814;28;20543;-69
2022/08/19 12:27:19;;;;;;;4.55;2.50;;;26.10;38.10;;;;;;5048608;28;20222;-69
2022/08/19 12:29:47;;;;;;;2.85;2.65;;;26.00;41.40;;;;;;5053300;28;20708;-69
2022/08/19 12:32:14;;;;;;;3.78;2.80;;;26.10;49.40;;;;;;5047845;28;20200;-69
2022/08/19 12:34:42;;;;;;;2.10;2.00;;;26.30;43.20;;;;;;5053466;28;20203;-70
2022/08/19 12:37:10;;;;;;;2.28;1.90;;;27.00;27.50;;;;;;5050656;28;20203;-70
2022/08/19 12:39:39;;;;;;;1.90;1.80;;;27.40;27.60;;;;;;5049216;28;20273;-70
2022/08/19 12:42:08;;;;;;;2.70;2.20;;;28.10;22.90;;;;;;5046212;28;20199;-70
2022/08/19 12:44:37;;;;;;;3.38;2.30;;;27.50;25.30;;;;;;5048902;28;20287;-70
2022/08/19 12:47:06;;;;;;;2.67;1.90;;;27.80;22.00;;;;;;5047171;28;20214;-70
2022/08/19 12:49:34;;;;;;;2.90;2.60;;;28.10;24.30;;;;;;5044166;28;20223;-70
2022/08/19 12:52:01;;;;;;;2.53;2.00;;;27.80;23.00;;;;;;5052357;28;20203;-69
2022/08/19 12:54:28;;;;;;;2.40;2.30;;;27.00;28.80;;;;;;5044183;28;20251;-70
2022/08/19 12:56:55;;;;;;;2.55;2.35;;;27.90;23.60;;;;;;5052263;28;20199;-70
2022/08/19 12:59:22;;;;;;;2.25;2.05;;;27.80;20.50;;;;;;5047457;28;20195;-70
2022/08/19 13:01:49;;;;;;;4.20;2.10;;;27.90;20.90;;;;;;5052401;28;20214;-70
2022/08/19 13:04:18;;;;;;;2.30;2.10;;;28.00;19.70;;;;;;5052569;28;20545;-70